sensor_id;sensor_type;location;lat;lon;timestamp;temperature;humidity
7248;DHT22;3665;51.034;13.642;2022-08-03T00:02:59;18.20;1.00
7248;DHT22;3665;51.034;13.642;2022-08-03T00:07:43;18.30;1.00
7248;DHT22;3665;51.034;13.642;2022-08-03T00:12:36;18.40;1.00
7248;DHT22;3665;51.034;13.642;2022-08-03T00:17:20;18.40;1.00
7248;DHT22;3665;51.034;13.642;2022-08-03T00:22:08;18.40;1.00
7248;DHT22;3665;51.034;13.642;2022-08-03T00:26:52;18.40;1.00
7248;DHT22;3665;51.034;13.642;2022-08-03T00:31:39;18.20;1.00
7248;DHT22;3665;51.034;13.642;2022-08-03T00:36:41;18.10;1.00
7248;DHT22;3665;51.034;13.642;2022-08-03T00:41:26;18.00;1.00
7248;DHT22;3665;51.034;13.642;2022-08-03T00:46:13;17.90;1.00
7248;DHT22;3665;51.034;13.642;2022-08-03T00:51:05;17.80;1.00
7248;DHT22;3665;51.034;13.642;2022-08-03T00:55:50;17.90;1.00
7248;DHT22;3665;51.034;13.642;2022-08-03T01:00:36;17.90;1.00
7248;DHT22;3665;51.034;13.642;2022-08-03T01:05:20;18.00;1.00
7248;DHT22;3665;51.034;13.642;2022-08-03T01:10:12;17.90;1.00
7248;DHT22;3665;51.034;13.642;2022-08-03T01:15:04;17.90;1.00
7248;DHT22;3665;51.034;13.642;2022-08-03T01:19:55;17.90;1.00
7248;DHT22;3665;51.034;13.642;2022-08-03T01:24:45;17.90;1.00
7248;DHT22;3665;51.034;13.642;2022-08-03T01:29:49;17.90;1.00
7248;DHT22;3665;51.034;13.642;2022-08-03T01:34:39;17.80;1.00
7248;DHT22;3665;51.034;13.642;2022-08-03T01:39:25;17.90;1.00
7248;DHT22;3665;51.034;13.642;2022-08-03T01:44:11;17.70;1.00
7248;DHT22;3665;51.034;13.642;2022-08-03T01:49:13;17.70;1.00
7248;DHT22;3665;51.034;13.642;2022-08-03T01:53:58;17.70;1.00
7248;DHT22;3665;51.034;13.642;2022-08-03T01:58:43;17.60;1.00
7248;DHT22;3665;51.034;13.642;2022-08-03T02:03:28;17.60;1.00
7248;DHT22;3665;51.034;13.642;2022-08-03T02:08:15;17.50;1.00
7248;DHT22;3665;51.034;13.642;2022-08-03T02:13:01;17.60;1.00
7248;DHT22;3665;51.034;13.642;2022-08-03T02:17:46;17.70;1.00
7248;DHT22;3665;51.034;13.642;2022-08-03T02:22:31;17.70;1.00
7248;DHT22;3665;51.034;13.642;2022-08-03T02:27:20;17.70;1.00
7248;DHT22;3665;51.034;13.642;2022-08-03T02:32:05;17.70;1.00
7248;DHT22;3665;51.034;13.642;2022-08-03T02:36:50;17.50;1.00
7248;DHT22;3665;51.034;13.642;2022-08-03T02:41:39;17.50;1.00
7248;DHT22;3665;51.034;13.642;2022-08-03T02:46:29;17.40;1.00
7248;DHT22;3665;51.034;13.642;2022-08-03T02:51:16;17.30;1.00
7248;DHT22;3665;51.034;13.642;2022-08-03T02:56:02;17.30;1.00
7248;DHT22;3665;51.034;13.642;2022-08-03T03:00:46;17.30;1.00
7248;DHT22;3665;51.034;13.642;2022-08-03T03:05:33;17.40;1.00
7248;DHT22;3665;51.034;13.642;2022-08-03T03:10:38;17.40;1.00
7248;DHT22;3665;51.034;13.642;2022-08-03T03:15:22;17.40;1.00
7248;DHT22;3665;51.034;13.642;2022-08-03T03:20:07;17.50;1.00
7248;DHT22;3665;51.034;13.642;2022-08-03T03:24:53;17.50;1.00
7248;DHT22;3665;51.034;13.642;2022-08-03T03:29:39;17.40;1.00
7248;DHT22;3665;51.034;13.642;2022-08-03T03:34:23;17.40;1.00
7248;DHT22;3665;51.034;13.642;2022-08-03T03:39:09;17.40;1.00
7248;DHT22;3665;51.034;13.642;2022-08-03T03:43:58;17.30;1.00
7248;DHT22;3665;51.034;13.642;2022-08-03T03:48:43;17.20;1.00
7248;DHT22;3665;51.034;13.642;2022-08-03T03:53:27;17.20;1.00
7248;DHT22;3665;51.034;13.642;2022-08-03T03:58:11;17.20;1.00
7248;DHT22;3665;51.034;13.642;2022-08-03T04:02:56;17.20;1.00
7248;DHT22;3665;51.034;13.642;2022-08-03T04:07:47;17.30;1.00
7248;DHT22;3665;51.034;13.642;2022-08-03T04:12:52;17.50;1.00
7248;DHT22;3665;51.034;13.642;2022-08-03T04:17:37;17.80;1.00
7248;DHT22;3665;51.034;13.642;2022-08-03T04:22:25;17.80;1.00
7248;DHT22;3665;51.034;13.642;2022-08-03T04:27:11;17.90;1.00
7248;DHT22;3665;51.034;13.642;2022-08-03T04:31:57;18.00;1.00
7248;DHT22;3665;51.034;13.642;2022-08-03T04:36:47;18.10;1.00
7248;DHT22;3665;51.034;13.642;2022-08-03T04:41:34;18.30;1.00
7248;DHT22;3665;51.034;13.642;2022-08-03T04:46:39;18.50;1.00
7248;DHT22;3665;51.034;13.642;2022-08-03T04:51:31;18.70;1.00
7248;DHT22;3665;51.034;13.642;2022-08-03T04:56:19;18.90;1.00
7248;DHT22;3665;51.034;13.642;2022-08-03T05:01:04;19.00;1.00
7248;DHT22;3665;51.034;13.642;2022-08-03T05:05:48;19.30;1.00
7248;DHT22;3665;51.034;13.642;2022-08-03T05:10:32;19.40;1.00
7248;DHT22;3665;51.034;13.642;2022-08-03T05:15:16;19.60;1.00
7248;DHT22;3665;51.034;13.642;2022-08-03T05:20:02;19.90;1.00
7248;DHT22;3665;51.034;13.642;2022-08-03T05:24:46;20.10;1.00
7248;DHT22;3665;51.034;13.642;2022-08-03T05:29:30;20.40;1.00
7248;DHT22;3665;51.034;13.642;2022-08-03T05:34:14;20.70;1.00
7248;DHT22;3665;51.034;13.642;2022-08-03T05:38:59;20.90;1.00
7248;DHT22;3665;51.034;13.642;2022-08-03T05:43:44;21.20;1.00
7248;DHT22;3665;51.034;13.642;2022-08-03T05:48:28;21.60;1.00
7248;DHT22;3665;51.034;13.642;2022-08-03T05:53:12;21.90;1.00
7248;DHT22;3665;51.034;13.642;2022-08-03T05:58:00;22.20;1.00
7248;DHT22;3665;51.034;13.642;2022-08-03T06:02:46;22.70;1.00
7248;DHT22;3665;51.034;13.642;2022-08-03T06:07:30;23.10;1.00
7248;DHT22;3665;51.034;13.642;2022-08-03T06:12:14;23.30;1.00
7248;DHT22;3665;51.034;13.642;2022-08-03T06:16:59;23.80;1.00
7248;DHT22;3665;51.034;13.642;2022-08-03T06:21:43;24.20;1.00
7248;DHT22;3665;51.034;13.642;2022-08-03T06:26:27;24.50;1.00
7248;DHT22;3665;51.034;13.642;2022-08-03T06:31:11;24.90;1.00
7248;DHT22;3665;51.034;13.642;2022-08-03T06:35:56;25.40;1.00
7248;DHT22;3665;51.034;13.642;2022-08-03T06:40:40;26.00;1.00
7248;DHT22;3665;51.034;13.642;2022-08-03T06:45:24;26.50;1.00
7248;DHT22;3665;51.034;13.642;2022-08-03T06:50:13;27.10;1.00
7248;DHT22;3665;51.034;13.642;2022-08-03T06:55:01;27.50;1.00
7248;DHT22;3665;51.034;13.642;2022-08-03T06:59:45;27.80;1.00
7248;DHT22;3665;51.034;13.642;2022-08-03T07:04:49;28.30;1.00
7248;DHT22;3665;51.034;13.642;2022-08-03T07:09:33;28.70;1.00
7248;DHT22;3665;51.034;13.642;2022-08-03T07:14:18;29.10;1.00
7248;DHT22;3665;51.034;13.642;2022-08-03T07:19:02;29.30;1.00
7248;DHT22;3665;51.034;13.642;2022-08-03T07:23:46;29.50;1.00
7248;DHT22;3665;51.034;13.642;2022-08-03T07:28:29;29.80;1.00
7248;DHT22;3665;51.034;13.642;2022-08-03T07:33:15;29.60;1.00
7248;DHT22;3665;51.034;13.642;2022-08-03T07:37:58;29.90;1.00
7248;DHT22;3665;51.034;13.642;2022-08-03T07:42:42;30.10;1.00
7248;DHT22;3665;51.034;13.642;2022-08-03T07:47:27;30.30;1.00
7248;DHT22;3665;51.034;13.642;2022-08-03T07:52:18;30.70;1.00
7248;DHT22;3665;51.034;13.642;2022-08-03T07:57:19;31.20;1.00
7248;DHT22;3665;51.034;13.642;2022-08-03T08:02:06;31.20;1.00
7248;DHT22;3665;51.034;13.642;2022-08-03T08:06:50;31.40;1.00
7248;DHT22;3665;51.034;13.642;2022-08-03T08:11:35;31.00;1.00
7248;DHT22;3665;51.034;13.642;2022-08-03T08:16:21;31.50;1.00
7248;DHT22;3665;51.034;13.642;2022-08-03T08:21:05;32.00;1.00
7248;DHT22;3665;51.034;13.642;2022-08-03T08:25:50;32.00;1.00
7248;DHT22;3665;51.034;13.642;2022-08-03T08:30:36;32.40;1.00
7248;DHT22;3665;51.034;13.642;2022-08-03T08:35:23;32.30;1.00
7248;DHT22;3665;51.034;13.642;2022-08-03T08:40:11;32.50;1.00
7248;DHT22;3665;51.034;13.642;2022-08-03T08:44:55;32.90;1.00
7248;DHT22;3665;51.034;13.642;2022-08-03T08:49:40;33.10;1.00
7248;DHT22;3665;51.034;13.642;2022-08-03T08:54:44;33.20;1.00
7248;DHT22;3665;51.034;13.642;2022-08-03T08:59:32;33.30;1.00
7248;DHT22;3665;51.034;13.642;2022-08-03T09:04:31;33.60;1.00
7248;DHT22;3665;51.034;13.642;2022-08-03T09:09:18;33.90;1.00
7248;DHT22;3665;51.034;13.642;2022-08-03T09:14:23;33.80;1.00
7248;DHT22;3665;51.034;13.642;2022-08-03T09:19:27;33.90;1.00
7248;DHT22;3665;51.034;13.642;2022-08-03T09:24:11;34.20;1.00
7248;DHT22;3665;51.034;13.642;2022-08-03T09:29:19;34.30;1.00
7248;DHT22;3665;51.034;13.642;2022-08-03T09:34:04;34.40;1.00
7248;DHT22;3665;51.034;13.642;2022-08-03T09:39:00;34.70;1.00
7248;DHT22;3665;51.034;13.642;2022-08-03T09:43:46;34.80;1.00
7248;DHT22;3665;51.034;13.642;2022-08-03T09:48:31;35.00;1.00
7248;DHT22;3665;51.034;13.642;2022-08-03T09:53:17;34.90;1.00
7248;DHT22;3665;51.034;13.642;2022-08-03T09:58:08;35.00;1.00
7248;DHT22;3665;51.034;13.642;2022-08-03T10:03:02;35.10;1.00
7248;DHT22;3665;51.034;13.642;2022-08-03T10:07:48;35.30;1.00
7248;DHT22;3665;51.034;13.642;2022-08-03T10:12:33;34.30;1.00
7248;DHT22;3665;51.034;13.642;2022-08-03T10:17:18;34.80;1.00
7248;DHT22;3665;51.034;13.642;2022-08-03T10:22:15;35.20;1.00
7248;DHT22;3665;51.034;13.642;2022-08-03T10:27:06;35.90;1.00
7248;DHT22;3665;51.034;13.642;2022-08-03T10:31:53;36.00;1.00
7248;DHT22;3665;51.034;13.642;2022-08-03T10:36:42;36.40;1.00
7248;DHT22;3665;51.034;13.642;2022-08-03T10:41:31;36.30;1.00
7248;DHT22;3665;51.034;13.642;2022-08-03T10:46:20;36.50;1.00
7248;DHT22;3665;51.034;13.642;2022-08-03T10:51:09;36.20;1.00
7248;DHT22;3665;51.034;13.642;2022-08-03T10:55:56;36.20;1.00
7248;DHT22;3665;51.034;13.642;2022-08-03T11:01:05;36.50;1.00
7248;DHT22;3665;51.034;13.642;2022-08-03T11:05:50;35.80;1.00
7248;DHT22;3665;51.034;13.642;2022-08-03T11:10:39;35.70;1.00
7248;DHT22;3665;51.034;13.642;2022-08-03T11:15:31;35.60;1.00
7248;DHT22;3665;51.034;13.642;2022-08-03T11:20:43;36.20;1.00
7248;DHT22;3665;51.034;13.642;2022-08-03T11:26:07;36.80;1.00
7248;DHT22;3665;51.034;13.642;2022-08-03T11:30:51;37.30;1.00
7248;DHT22;3665;51.034;13.642;2022-08-03T11:35:59;36.50;1.00
7248;DHT22;3665;51.034;13.642;2022-08-03T11:40:46;35.10;1.00
7248;DHT22;3665;51.034;13.642;2022-08-03T11:45:30;35.40;1.00
7248;DHT22;3665;51.034;13.642;2022-08-03T11:50:14;36.00;1.00
7248;DHT22;3665;51.034;13.642;2022-08-03T11:55:00;36.30;1.00
7248;DHT22;3665;51.034;13.642;2022-08-03T11:59:45;36.60;1.00
7248;DHT22;3665;51.034;13.642;2022-08-03T12:04:30;36.40;1.00
7248;DHT22;3665;51.034;13.642;2022-08-03T12:09:17;35.30;1.00
7248;DHT22;3665;51.034;13.642;2022-08-03T12:14:02;34.90;1.00
7248;DHT22;3665;51.034;13.642;2022-08-03T12:19:10;35.10;1.00
7248;DHT22;3665;51.034;13.642;2022-08-03T12:24:02;36.10;1.00
7248;DHT22;3665;51.034;13.642;2022-08-03T12:28:48;35.80;1.00
7248;DHT22;3665;51.034;13.642;2022-08-03T12:33:55;35.40;1.00
7248;DHT22;3665;51.034;13.642;2022-08-03T12:38:42;35.30;1.00
7248;DHT22;3665;51.034;13.642;2022-08-03T12:43:30;35.80;1.00
7248;DHT22;3665;51.034;13.642;2022-08-03T12:48:23;36.80;1.00
7248;DHT22;3665;51.034;13.642;2022-08-03T12:53:27;37.20;1.00
7248;DHT22;3665;51.034;13.642;2022-08-03T12:58:33;37.10;1.00
7248;DHT22;3665;51.034;13.642;2022-08-03T13:03:18;37.10;1.00
7248;DHT22;3665;51.034;13.642;2022-08-03T13:08:23;36.90;1.00
7248;DHT22;3665;51.034;13.642;2022-08-03T13:13:13;37.20;1.00
7248;DHT22;3665;51.034;13.642;2022-08-03T13:18:00;37.20;1.00
7248;DHT22;3665;51.034;13.642;2022-08-03T13:22:50;36.30;1.00
7248;DHT22;3665;51.034;13.642;2022-08-03T13:27:34;36.20;1.00
7248;DHT22;3665;51.034;13.642;2022-08-03T13:32:40;36.60;1.00
7248;DHT22;3665;51.034;13.642;2022-08-03T13:37:28;36.90;1.00
7248;DHT22;3665;51.034;13.642;2022-08-03T13:42:16;36.50;1.00
7248;DHT22;3665;51.034;13.642;2022-08-03T13:47:04;36.30;1.00
7248;DHT22;3665;51.034;13.642;2022-08-03T13:51:48;36.40;1.00
7248;DHT22;3665;51.034;13.642;2022-08-03T13:56:36;36.60;1.00
7248;DHT22;3665;51.034;13.642;2022-08-03T14:01:21;36.20;1.00
7248;DHT22;3665;51.034;13.642;2022-08-03T14:06:25;36.30;1.00
7248;DHT22;3665;51.034;13.642;2022-08-03T14:11:10;36.50;1.00
7248;DHT22;3665;51.034;13.642;2022-08-03T14:15:59;36.50;1.00
7248;DHT22;3665;51.034;13.642;2022-08-03T14:20:44;36.50;1.00
7248;DHT22;3665;51.034;13.642;2022-08-03T14:25:37;36.40;1.00
7248;DHT22;3665;51.034;13.642;2022-08-03T14:30:34;36.40;1.00
7248;DHT22;3665;51.034;13.642;2022-08-03T14:35:20;36.50;1.00
7248;DHT22;3665;51.034;13.642;2022-08-03T14:40:05;36.30;1.00
7248;DHT22;3665;51.034;13.642;2022-08-03T14:44:50;36.40;1.00
7248;DHT22;3665;51.034;13.642;2022-08-03T14:49:38;36.10;1.00
7248;DHT22;3665;51.034;13.642;2022-08-03T14:54:46;35.90;1.00
7248;DHT22;3665;51.034;13.642;2022-08-03T14:59:37;35.80;1.00
7248;DHT22;3665;51.034;13.642;2022-08-03T15:04:38;35.80;1.00
7248;DHT22;3665;51.034;13.642;2022-08-03T15:09:22;35.70;1.00
7248;DHT22;3665;51.034;13.642;2022-08-03T15:14:08;35.30;1.00
7248;DHT22;3665;51.034;13.642;2022-08-03T15:18:55;34.60;1.00
7248;DHT22;3665;51.034;13.642;2022-08-03T15:23:41;34.30;1.00
7248;DHT22;3665;51.034;13.642;2022-08-03T15:28:28;33.70;1.00
7248;DHT22;3665;51.034;13.642;2022-08-03T15:33:38;33.50;1.00
7248;DHT22;3665;51.034;13.642;2022-08-03T15:38:22;33.80;1.00
7248;DHT22;3665;51.034;13.642;2022-08-03T15:43:07;34.10;1.00
7248;DHT22;3665;51.034;13.642;2022-08-03T15:47:51;34.30;1.00
7248;DHT22;3665;51.034;13.642;2022-08-03T15:52:37;34.30;1.00
7248;DHT22;3665;51.034;13.642;2022-08-03T15:57:21;34.30;1.00
7248;DHT22;3665;51.034;13.642;2022-08-03T16:02:05;34.30;1.00
7248;DHT22;3665;51.034;13.642;2022-08-03T16:06:51;34.30;1.00
7248;DHT22;3665;51.034;13.642;2022-08-03T16:11:40;34.30;1.00
7248;DHT22;3665;51.034;13.642;2022-08-03T16:16:25;34.00;1.00
7248;DHT22;3665;51.034;13.642;2022-08-03T16:21:09;34.00;1.00
7248;DHT22;3665;51.034;13.642;2022-08-03T16:26:00;34.10;1.00
7248;DHT22;3665;51.034;13.642;2022-08-03T16:30:51;34.00;1.00
7248;DHT22;3665;51.034;13.642;2022-08-03T16:35:37;34.00;1.00
7248;DHT22;3665;51.034;13.642;2022-08-03T16:40:23;33.90;1.00
7248;DHT22;3665;51.034;13.642;2022-08-03T16:45:08;33.70;1.00
7248;DHT22;3665;51.034;13.642;2022-08-03T16:49:53;33.50;1.00
7248;DHT22;3665;51.034;13.642;2022-08-03T16:54:38;33.40;1.00
7248;DHT22;3665;51.034;13.642;2022-08-03T16:59:24;32.60;1.00
7248;DHT22;3665;51.034;13.642;2022-08-03T17:04:17;32.20;1.00
7248;DHT22;3665;51.034;13.642;2022-08-03T17:09:05;32.00;1.00
7248;DHT22;3665;51.034;13.642;2022-08-03T17:13:51;31.80;1.00
7248;DHT22;3665;51.034;13.642;2022-08-03T17:18:38;31.60;1.00
7248;DHT22;3665;51.034;13.642;2022-08-03T17:23:37;31.60;1.00
7248;DHT22;3665;51.034;13.642;2022-08-03T17:28:27;31.10;1.00
7248;DHT22;3665;51.034;13.642;2022-08-03T17:34:05;30.70;1.00
7248;DHT22;3665;51.034;13.642;2022-08-03T17:38:50;30.40;1.00
7248;DHT22;3665;51.034;13.642;2022-08-03T17:43:36;30.00;1.00
7248;DHT22;3665;51.034;13.642;2022-08-03T17:48:42;29.70;1.00
7248;DHT22;3665;51.034;13.642;2022-08-03T17:53:27;29.50;1.00
7248;DHT22;3665;51.034;13.642;2022-08-03T17:58:14;29.10;1.00
7248;DHT22;3665;51.034;13.642;2022-08-03T18:03:09;28.70;1.00
7248;DHT22;3665;51.034;13.642;2022-08-03T18:08:02;28.60;1.00
7248;DHT22;3665;51.034;13.642;2022-08-03T18:12:54;28.30;1.00
7248;DHT22;3665;51.034;13.642;2022-08-03T18:17:41;28.10;1.00
7248;DHT22;3665;51.034;13.642;2022-08-03T18:22:45;27.80;1.00
7248;DHT22;3665;51.034;13.642;2022-08-03T18:27:30;27.40;1.00
7248;DHT22;3665;51.034;13.642;2022-08-03T18:32:27;27.20;1.00
7248;DHT22;3665;51.034;13.642;2022-08-03T18:37:21;26.80;1.00
7248;DHT22;3665;51.034;13.642;2022-08-03T18:42:08;26.40;1.00
7248;DHT22;3665;51.034;13.642;2022-08-03T18:47:17;26.20;1.00
7248;DHT22;3665;51.034;13.642;2022-08-03T18:52:12;25.80;1.00
7248;DHT22;3665;51.034;13.642;2022-08-03T18:57:01;25.40;1.00
7248;DHT22;3665;51.034;13.642;2022-08-03T19:01:50;25.00;1.00
7248;DHT22;3665;51.034;13.642;2022-08-03T19:06:46;24.70;1.00
7248;DHT22;3665;51.034;13.642;2022-08-03T19:11:37;24.40;1.00
7248;DHT22;3665;51.034;13.642;2022-08-03T19:16:46;24.00;1.00
7248;DHT22;3665;51.034;13.642;2022-08-03T19:21:33;23.70;1.00
7248;DHT22;3665;51.034;13.642;2022-08-03T19:26:17;23.50;1.00
7248;DHT22;3665;51.034;13.642;2022-08-03T19:31:15;23.30;1.00
7248;DHT22;3665;51.034;13.642;2022-08-03T19:36:18;23.20;1.00
7248;DHT22;3665;51.034;13.642;2022-08-03T19:41:11;23.10;1.00
7248;DHT22;3665;51.034;13.642;2022-08-03T19:46:05;23.00;1.00
7248;DHT22;3665;51.034;13.642;2022-08-03T19:51:06;23.00;1.00
7248;DHT22;3665;51.034;13.642;2022-08-03T19:56:03;23.00;1.00
7248;DHT22;3665;51.034;13.642;2022-08-03T20:00:50;23.10;1.00
7248;DHT22;3665;51.034;13.642;2022-08-03T20:05:38;23.20;1.00
7248;DHT22;3665;51.034;13.642;2022-08-03T20:10:34;23.30;1.00
7248;DHT22;3665;51.034;13.642;2022-08-03T20:15:22;23.30;1.00
7248;DHT22;3665;51.034;13.642;2022-08-03T20:20:18;23.30;1.00
7248;DHT22;3665;51.034;13.642;2022-08-03T20:25:07;23.20;1.00
7248;DHT22;3665;51.034;13.642;2022-08-03T20:30:01;23.20;1.00
7248;DHT22;3665;51.034;13.642;2022-08-03T20:34:55;23.40;1.00
7248;DHT22;3665;51.034;13.642;2022-08-03T20:39:44;23.50;1.00
7248;DHT22;3665;51.034;13.642;2022-08-03T20:44:49;23.50;1.00
7248;DHT22;3665;51.034;13.642;2022-08-03T20:49:51;23.50;1.00
7248;DHT22;3665;51.034;13.642;2022-08-03T20:54:37;23.40;1.00
7248;DHT22;3665;51.034;13.642;2022-08-03T20:59:31;23.30;1.00
7248;DHT22;3665;51.034;13.642;2022-08-03T21:04:33;23.10;1.00
7248;DHT22;3665;51.034;13.642;2022-08-03T21:09:30;23.00;1.00
7248;DHT22;3665;51.034;13.642;2022-08-03T21:14:37;22.80;1.00
7248;DHT22;3665;51.034;13.642;2022-08-03T21:19:23;22.70;1.00
7248;DHT22;3665;51.034;13.642;2022-08-03T21:24:12;22.70;1.00
7248;DHT22;3665;51.034;13.642;2022-08-03T21:28:59;22.70;1.00
7248;DHT22;3665;51.034;13.642;2022-08-03T21:33:46;22.70;1.00
7248;DHT22;3665;51.034;13.642;2022-08-03T21:38:38;22.70;1.00
7248;DHT22;3665;51.034;13.642;2022-08-03T21:43:38;22.60;1.00
7248;DHT22;3665;51.034;13.642;2022-08-03T21:48:23;22.60;1.00
7248;DHT22;3665;51.034;13.642;2022-08-03T21:53:10;22.50;1.00
7248;DHT22;3665;51.034;13.642;2022-08-03T21:57:59;22.60;1.00
7248;DHT22;3665;51.034;13.642;2022-08-03T22:02:53;22.70;1.00
7248;DHT22;3665;51.034;13.642;2022-08-03T22:07:46;22.60;1.00
7248;DHT22;3665;51.034;13.642;2022-08-03T22:12:34;22.60;1.00
7248;DHT22;3665;51.034;13.642;2022-08-03T22:17:28;22.50;1.00
7248;DHT22;3665;51.034;13.642;2022-08-03T22:22:37;22.30;1.00
7248;DHT22;3665;51.034;13.642;2022-08-03T22:27:39;22.20;1.00
7248;DHT22;3665;51.034;13.642;2022-08-03T22:32:30;22.00;1.00
7248;DHT22;3665;51.034;13.642;2022-08-03T22:37:18;21.90;1.00
7248;DHT22;3665;51.034;13.642;2022-08-03T22:42:08;21.80;1.00
7248;DHT22;3665;51.034;13.642;2022-08-03T22:46:59;21.60;1.00
7248;DHT22;3665;51.034;13.642;2022-08-03T22:51:50;21.50;1.00
7248;DHT22;3665;51.034;13.642;2022-08-03T22:56:45;21.20;1.00
7248;DHT22;3665;51.034;13.642;2022-08-03T23:01:50;21.00;1.00
7248;DHT22;3665;51.034;13.642;2022-08-03T23:06:55;20.70;1.00
7248;DHT22;3665;51.034;13.642;2022-08-03T23:11:47;20.50;1.00
7248;DHT22;3665;51.034;13.642;2022-08-03T23:16:38;20.40;1.00
7248;DHT22;3665;51.034;13.642;2022-08-03T23:21:31;20.30;1.00
7248;DHT22;3665;51.034;13.642;2022-08-03T23:26:45;20.30;1.00
7248;DHT22;3665;51.034;13.642;2022-08-03T23:31:30;20.30;1.00
7248;DHT22;3665;51.034;13.642;2022-08-03T23:36:27;20.20;1.00
7248;DHT22;3665;51.034;13.642;2022-08-03T23:41:14;20.10;1.00
7248;DHT22;3665;51.034;13.642;2022-08-03T23:46:10;19.90;1.00
7248;DHT22;3665;51.034;13.642;2022-08-03T23:51:14;19.80;1.00
7248;DHT22;3665;51.034;13.642;2022-08-03T23:56:22;19.80;1.00
